Time;durP1;ratioP1;P1;durP2;ratioP2;P2;SDS_P1;SDS_P2;PMS_P1;PMS_P2;Temp;Humidity;BMP_temperature;BMP_pressure;BME280_temperature;BME280_humidity;BME280_pressure;Samples;Min_cycle;Max_cycle;Signal;HPM_P1;HPM_P2
2022/06/29 00:01:29;;;;;;;8.98;3.15;;;;;;;21.22;58.77;99523.81;4986266;28;20025;-94
2022/06/29 00:03:54;;;;;;;7.13;3.33;;;;;;;21.22;58.50;99526.56;4985240;28;20484;-94
2022/06/29 00:06:20;;;;;;;7.38;3.20;;;;;;;21.15;59.03;99533.38;4985474;28;20495;-94
2022/06/29 00:08:46;;;;;;;3.22;2.90;;;;;;;21.08;58.50;99511.19;4985109;28;20468;-94
2022/06/29 00:11:12;;;;;;;6.93;3.35;;;;;;;21.26;58.39;99533.75;4985550;28;20041;-94
2022/06/29 00:13:37;;;;;;;5.03;2.88;;;;;;;21.22;57.95;99510.13;4985297;28;20025;-94
2022/06/29 00:16:03;;;;;;;5.32;2.90;;;;;;;21.37;57.51;99525.91;4985775;28;20036;-94
2022/06/29 00:18:28;;;;;;;6.50;2.92;;;;;;;21.32;58.24;99535.16;4985254;28;20453;-94
2022/06/29 00:20:54;;;;;;;7.47;3.28;;;;;;;21.14;59.47;99522.75;4985263;28;20109;-94
2022/06/29 00:23:20;;;;;;;7.97;3.15;;;;;;;21.16;58.96;99525.94;4985663;28;20021;-94
2022/06/29 00:25:45;;;;;;;4.72;3.33;;;;;;;21.06;58.81;99518.94;4984926;28;20112;-93
2022/06/29 00:28:11;;;;;;;5.15;3.30;;;;;;;20.97;59.11;99505.31;4985296;28;20105;-93
2022/06/29 00:30:37;;;;;;;5.18;3.22;;;;;;;21.03;59.20;99513.34;4984920;28;20037;-94
2022/06/29 00:33:02;;;;;;;4.60;3.22;;;;;;;20.98;59.73;99506.94;5001724;28;20033;-94
2022/06/29 00:35:28;;;;;;;6.28;3.22;;;;;;;21.01;59.79;99515.63;4984647;28;20027;-94
2022/06/29 00:37:56;;;;;;;5.50;3.45;;;;;;;20.97;60.50;99519.00;4985584;28;20124;-93
2022/06/29 00:40:28;;;;;;;6.78;3.75;;;;;;;20.89;60.14;99503.44;4984882;28;20021;-93
2022/06/29 00:42:53;;;;;;;4.72;3.67;;;;;;;20.87;60.33;99511.19;4985297;28;20091;-92
2022/06/29 00:45:19;;;;;;;6.13;3.85;;;;;;;20.76;60.22;99499.06;4984448;28;20037;-93
2022/06/29 00:47:44;;;;;;;10.70;4.15;;;;;;;20.73;60.71;99513.41;4984661;28;20017;-94
2022/06/29 00:50:10;;;;;;;6.70;3.85;;;;;;;20.61;60.33;99494.16;4984282;28;20022;-94
2022/06/29 00:52:39;;;;;;;7.03;4.00;;;;;;;20.75;61.09;99524.81;5000397;28;20110;-94
2022/06/29 00:55:10;;;;;;;6.80;4.18;;;;;;;20.58;60.99;99507.38;4984828;28;20021;-95
2022/06/29 00:57:38;;;;;;;8.48;4.05;;;;;;;20.57;60.89;99505.75;4986036;28;20036;-94
2022/06/29 01:00:07;;;;;;;12.90;4.55;;;;;;;20.48;61.19;99491.34;4984414;28;20029;-93
2022/06/29 01:02:32;;;;;;;6.90;4.40;;;;;;;20.51;61.83;99506.28;4985699;28;20030;-94
2022/06/29 01:04:58;;;;;;;7.15;4.28;;;;;;;20.53;62.11;99513.03;4984028;28;20415;-93
2022/06/29 01:07:25;;;;;;;8.88;4.88;;;;;;;20.58;61.66;99517.53;5000280;28;20025;-94
2022/06/29 01:09:50;;;;;;;10.35;4.70;;;;;;;20.38;61.96;99489.00;4984119;28;20471;-94
2022/06/29 01:12:16;;;;;;;8.23;4.45;;;;;;;20.43;61.89;99507.13;4983949;28;20049;-94
2022/06/29 01:14:42;;;;;;;7.60;4.55;;;;;;;20.55;61.11;99488.88;4983993;28;20060;-93
2022/06/29 01:17:08;;;;;;;5.35;3.80;;;;;;;20.54;62.54;99495.50;4984683;28;20112;-94
2022/06/29 01:19:33;;;;;;;10.40;3.75;;;;;;;20.59;61.76;99489.03;4983133;28;20032;-94
2022/06/29 01:22:10;;;;;;;7.32;3.97;;;;;;;20.56;61.96;99487.72;4984031;28;20560;-94
2022/06/29 01:24:36;;;;;;;6.75;4.57;;;;;;;20.53;61.41;99463.00;4984793;28;20029;-94
2022/06/29 01:27:01;;;;;;;6.60;4.45;;;;;;;20.31;62.30;99462.16;4983770;28;20025;-94
2022/06/29 01:29:27;;;;;;;8.00;4.00;;;;;;;20.45;62.31;99469.31;4984147;28;20036;-94
2022/06/29 01:31:54;;;;;;;7.97;4.57;;;;;;;20.41;62.43;99471.13;4983970;28;20033;-94
2022/06/29 01:34:19;;;;;;;9.30;4.15;;;;;;;20.41;62.29;99473.84;4984063;28;20088;-94
2022/06/29 01:36:45;;;;;;;8.20;4.72;;;;;;;20.37;62.37;99477.22;4983622;28;20484;-93
2022/06/29 01:39:10;;;;;;;6.15;4.15;;;;;;;20.33;62.62;99480.97;4984147;28;20065;-94
2022/06/29 01:41:36;;;;;;;6.68;4.07;;;;;;;20.22;62.97;99472.34;4983998;28;20083;-94
2022/06/29 01:44:01;;;;;;;6.97;4.13;;;;;;;20.28;62.66;99473.75;4983720;28;20025;-94
2022/06/29 01:46:27;;;;;;;6.78;4.18;;;;;;;20.20;62.68;99469.16;4983198;28;20057;-94
2022/06/29 01:48:52;;;;;;;8.75;3.90;;;;;;;20.26;62.56;99469.75;4983402;28;20022;-93
2022/06/29 01:51:18;;;;;;;5.80;3.85;;;;;;;20.20;62.68;99477.34;4983529;28;20108;-93
2022/06/29 01:53:44;;;;;;;6.18;4.35;;;;;;;20.13;62.81;99461.47;4983523;28;20045;-93
2022/06/29 01:56:09;;;;;;;7.82;5.72;;;;;;;20.24;62.96;99478.28;4983470;28;20029;-93
2022/06/29 01:58:35;;;;;;;8.05;4.90;;;;;;;19.97;62.93;99439.34;4983319;28;20442;-93
2022/06/29 02:01:00;;;;;;;9.57;5.18;;;;;;;20.12;62.59;99454.38;4983674;28;20067;-94
2022/06/29 02:03:28;;;;;;;8.10;5.05;;;;;;;20.09;62.86;99459.72;4983656;28;20025;-93
2022/06/29 02:05:54;;;;;;;9.73;5.10;;;;;;;19.95;63.49;99459.94;4983550;28;20048;-94
2022/06/29 02:08:19;;;;;;;7.65;4.50;;;;;;;19.86;63.56;99438.13;4983182;28;20045;-94
2022/06/29 02:10:45;;;;;;;8.60;4.43;;;;;;;19.98;63.31;99449.16;4983769;28;20099;-94
2022/06/29 02:13:10;;;;;;;7.07;5.05;;;;;;;19.83;64.12;99443.44;4983424;28;20533;-94
2022/06/29 02:15:36;;;;;;;10.50;4.55;;;;;;;19.64;64.72;99435.63;4983264;28;20553;-95
2022/06/29 02:18:02;;;;;;;7.60;4.60;;;;;;;19.61;65.19;99447.19;4999393;28;20084;-93
2022/06/29 02:20:27;;;;;;;9.93;5.63;;;;;;;19.52;64.66;99441.75;4983140;28;20450;-94
2022/06/29 02:22:54;;;;;;;6.60;4.70;;;;;;;19.55;65.12;99452.84;4983196;28;20033;-93
2022/06/29 02:25:20;;;;;;;7.22;4.57;;;;;;;19.60;64.40;99446.41;4983132;28;20476;-94
2022/06/29 02:27:45;;;;;;;9.77;4.65;;;;;;;19.66;64.29;99450.56;4983133;28;20482;-95
2022/06/29 02:30:13;;;;;;;6.22;4.90;;;;;;;19.46;64.73;99427.47;4985106;28;20029;-94
2022/06/29 02:35:22;;;;;;;5.68;3.90;;;;;;;19.70;64.45;99461.63;5010322;28;20040;-94
2022/06/29 02:37:48;;;;;;;6.85;4.13;;;;;;;19.67;64.78;99456.81;4987645;28;20029;-94
2022/06/29 02:40:13;;;;;;;9.77;4.40;;;;;;;19.65;64.64;99448.97;4987434;28;20103;-94
2022/06/29 02:42:39;;;;;;;6.35;4.63;;;;;;;19.64;64.41;99452.81;4987231;28;20029;-94
2022/06/29 02:45:05;;;;;;;7.82;4.32;;;;;;;19.52;65.75;99453.47;4987569;28;20037;-94
2022/06/29 02:47:30;;;;;;;7.57;4.35;;;;;;;19.46;66.03;99448.53;4987404;28;20029;-94
2022/06/29 02:49:56;;;;;;;7.32;4.07;;;;;;;19.44;65.70;99454.31;4987953;28;20053;-94
2022/06/29 02:52:21;;;;;;;11.20;4.50;;;;;;;19.58;65.36;99475.97;4986882;28;20045;-94
2022/06/29 02:54:47;;;;;;;8.60;4.13;;;;;;;19.34;65.79;99449.19;4988396;28;20029;-94
2022/06/29 02:57:12;;;;;;;6.65;4.00;;;;;;;19.39;66.01;99462.69;4987570;28;20474;-94
2022/06/29 02:59:38;;;;;;;7.28;4.15;;;;;;;19.29;66.13;99443.91;4986922;28;20033;-94
2022/06/29 03:02:03;;;;;;;6.25;4.18;;;;;;;19.34;66.54;99477.31;4986687;28;20392;-93
2022/06/29 03:04:29;;;;;;;9.75;4.65;;;;;;;19.14;67.23;99461.63;4986839;28;20033;-94
2022/06/29 03:06:55;;;;;;;8.45;4.45;;;;;;;19.12;66.89;99472.84;4986882;28;20029;-94
2022/06/29 03:09:20;;;;;;;8.18;4.45;;;;;;;19.15;65.99;99471.41;4986675;28;20025;-94
2022/06/29 03:11:46;;;;;;;11.93;5.05;;;;;;;19.38;65.44;99483.75;4986352;28;20080;-94
2022/06/29 03:14:11;;;;;;;5.50;4.22;;;;;;;19.39;65.31;99466.22;4987490;28;20021;-93
2022/06/29 03:16:37;;;;;;;5.72;4.20;;;;;;;19.45;64.64;99469.59;4986514;28;20021;-93
2022/06/29 03:19:02;;;;;;;6.90;4.45;;;;;;;19.50;64.21;99457.66;4986497;28;20028;-91
2022/06/29 03:21:28;;;;;;;8.10;4.70;;;;;;;19.54;64.29;99453.97;4986447;28;20156;-93
2022/06/29 03:23:54;;;;;;;4.80;4.35;;;;;;;19.56;64.57;99461.84;4986203;28;20086;-93
2022/06/29 03:26:19;;;;;;;6.82;4.38;;;;;;;19.49;64.53;99443.22;4986550;28;20032;-92
2022/06/29 03:28:45;;;;;;;8.15;4.70;;;;;;;19.65;64.83;99459.06;5002076;28;20435;-92
2022/06/29 03:31:11;;;;;;;9.75;5.35;;;;;;;19.54;64.72;99444.97;5002430;28;20029;-92
2022/06/29 03:33:36;;;;;;;10.80;5.55;;;;;;;19.64;64.93;99460.22;4986208;28;20079;-92
2022/06/29 03:36:02;;;;;;;6.85;4.43;;;;;;;19.42;65.66;99445.63;4986100;28;20056;-93
2022/06/29 03:38:27;;;;;;;5.50;4.40;;;;;;;19.12;65.90;99433.84;4985922;28;20033;-94
2022/06/29 03:40:53;;;;;;;6.18;4.60;;;;;;;19.08;66.58;99460.19;4986413;28;20055;-93
2022/06/29 03:43:18;;;;;;;8.25;5.00;;;;;;;19.05;66.60;99455.34;4986569;28;20025;-93
2022/06/29 03:45:44;;;;;;;11.88;4.82;;;;;;;18.86;67.44;99458.41;5002303;28;20095;-92
2022/06/29 03:48:09;;;;;;;8.52;4.68;;;;;;;19.02;67.14;99458.75;4987218;28;20016;-94
2022/06/29 03:50:35;;;;;;;8.80;5.30;;;;;;;19.05;67.20;99460.81;4985908;28;20104;-93
2022/06/29 03:53:00;;;;;;;11.55;4.80;;;;;;;19.01;67.87;99451.66;4985769;28;20021;-93
2022/06/29 03:55:26;;;;;;;13.32;5.28;;;;;;;18.96;68.15;99447.19;4985843;28;20045;-93
2022/06/29 03:57:51;;;;;;;10.77;5.15;;;;;;;19.05;67.50;99453.44;4985869;28;20022;-91
2022/06/29 04:00:17;;;;;;;10.43;5.57;;;;;;;18.88;67.82;99446.06;4986226;28;20026;-92
2022/06/29 04:02:43;;;;;;;9.82;5.28;;;;;;;18.99;67.55;99468.38;4986515;28;20028;-94
2022/06/29 04:05:08;;;;;;;10.95;5.35;;;;;;;19.04;67.71;99464.69;4985970;28;20469;-94
2022/06/29 04:07:35;;;;;;;10.10;5.55;;;;;;;19.03;67.56;99471.25;4985418;28;20122;-92
2022/06/29 04:10:04;;;;;;;15.35;6.93;;;;;;;19.09;67.28;99470.78;4986296;28;20025;-93
2022/06/29 04:12:33;;;;;;;7.28;5.22;;;;;;;19.04;66.81;99443.63;5010567;28;20063;-92
2022/06/29 04:14:59;;;;;;;14.45;7.90;;;;;;;19.20;66.08;99471.25;4988865;28;20025;-91
2022/06/29 04:17:27;;;;;;;16.10;8.00;;;;;;;19.28;66.16;99470.44;4985728;28;20079;-93
2022/06/29 04:19:53;;;;;;;17.80;7.93;;;;;;;19.46;66.60;99471.16;4987369;28;20068;-96
2022/06/29 04:22:22;;;;;;;20.70;8.50;;;;;;;19.51;66.36;99471.00;4987215;28;20033;-94
2022/06/29 04:24:51;;;;;;;23.25;9.40;;;;;;;19.57;66.14;99472.44;4987507;28;20026;-94
2022/06/29 04:27:16;;;;;;;22.27;10.15;;;;;;;19.56;66.44;99473.56;4986512;28;20017;-93
2022/06/29 04:29:42;;;;;;;16.77;9.73;;;;;;;19.55;65.50;99462.97;4986592;28;20536;-94
2022/06/29 04:32:09;;;;;;;28.73;10.15;;;;;;;19.63;65.60;99464.06;4986114;28;20021;-92
2022/06/29 04:34:34;;;;;;;17.15;9.35;;;;;;;19.74;65.54;99470.81;5010270;28;20082;-91
2022/06/29 04:37:02;;;;;;;15.48;9.73;;;;;;;20.02;64.50;99476.63;5008439;28;20029;-94
2022/06/29 04:39:27;;;;;;;16.45;10.15;;;;;;;20.02;64.35;99473.88;5011926;28;20111;-92
2022/06/29 04:41:53;;;;;;;17.70;10.98;;;;;;;20.08;63.75;99458.91;5019861;28;20025;-93
2022/06/29 04:44:19;;;;;;;18.80;10.63;;;;;;;20.16;63.58;99474.47;4997656;28;20499;-94
2022/06/29 04:46:44;;;;;;;20.55;9.32;;;;;;;20.12;63.34;99456.31;5005754;28;20028;-93
2022/06/29 04:49:10;;;;;;;11.77;6.22;;;;;;;20.44;62.20;99476.72;5000301;28;20031;-96
2022/06/29 04:51:36;;;;;;;16.35;8.18;;;;;;;20.54;62.05;99481.00;5007861;28;20036;-93
2022/06/29 04:54:01;;;;;;;8.63;4.93;;;;;;;20.48;61.62;99464.00;5113952;23;20079;-91
2022/06/29 04:56:31;;;;;;;15.38;5.18;;;;;;;20.61;61.28;99475.84;5008342;28;20103;-94
2022/06/29 04:59:01;;;;;;;25.05;5.45;;;;;;;20.84;60.57;99489.19;5007794;28;20042;-94
2022/06/29 05:01:28;;;;;;;13.75;4.20;;;;;;;20.73;60.15;99456.75;5023792;28;20483;-94
2022/06/29 05:04:01;;;;;;;48.92;7.72;;;;;;;20.88;60.37;99468.22;5024534;28;20025;-95
2022/06/29 05:07:05;;;;;;;12.85;4.80;;;;;;;20.90;60.26;99457.75;5027702;28;20021;-94
2022/06/29 05:09:31;;;;;;;6.95;4.05;;;;;;;20.89;59.88;99458.88;5053690;28;20036;-91
2022/06/29 05:11:58;;;;;;;12.00;5.70;;;;;;;21.16;59.83;99473.91;5005139;28;20029;-92
2022/06/29 05:14:24;;;;;;;5.47;3.70;;;;;;;21.15;59.38;99455.91;5020651;28;20018;-91
2022/06/29 05:16:49;;;;;;;10.82;3.83;;;;;;;21.31;59.46;99467.81;5020454;28;20480;-92
2022/06/29 05:19:16;;;;;;;13.20;4.20;;;;;;;21.34;58.84;99474.56;5007508;28;20514;-91
2022/06/29 05:21:53;;;;;;;10.05;4.30;;;;;;;21.49;58.57;99468.44;5034678;28;20064;-93
2022/06/29 05:24:21;;;;;;;19.40;11.82;;;;;;;21.66;57.64;99481.16;5037958;28;20017;-93
2022/06/29 05:26:49;;;;;;;13.07;8.25;;;;;;;21.73;58.42;99475.94;5014430;28;20123;-91
2022/06/29 05:29:15;;;;;;;10.77;4.13;;;;;;;21.81;57.81;99460.53;5015638;28;20023;-91
2022/06/29 05:31:42;;;;;;;7.72;3.75;;;;;;;21.80;56.56;99462.44;5027782;28;20017;-92
2022/06/29 05:34:07;;;;;;;5.88;3.58;;;;;;;21.84;56.21;99467.25;5043527;28;20020;-92
2022/06/29 05:36:32;;;;;;;8.85;3.90;;;;;;;22.03;55.49;99483.16;5044560;28;20032;-93
2022/06/29 05:38:58;;;;;;;7.22;3.55;;;;;;;21.97;54.91;99472.38;5004427;28;20026;-92
2022/06/29 05:41:24;;;;;;;10.13;4.20;;;;;;;22.10;54.76;99478.69;4985999;28;20025;-92
2022/06/29 05:43:51;;;;;;;4.28;3.00;;;;;;;22.19;54.61;99478.56;5017563;28;20179;-91
2022/06/29 05:46:18;;;;;;;8.05;3.42;;;;;;;22.23;54.45;99493.22;5002234;28;20057;-92
2022/06/29 05:48:47;;;;;;;6.05;3.70;;;;;;;22.26;54.07;99487.03;5004375;28;20024;-91
2022/06/29 05:51:17;;;;;;;13.95;3.67;;;;;;;22.26;54.31;99470.59;5020473;28;20035;-93
2022/06/29 05:54:12;;;;;;;4.88;3.70;;;;;;;22.46;54.47;99488.06;5040937;28;20056;-91
2022/06/29 05:56:46;;;;;;;18.98;6.30;;;;;;;22.42;53.84;99472.63;5041662;28;20120;-96
2022/06/29 05:59:18;;;;;;;7.03;3.88;;;;;;;22.61;52.82;99483.78;5048692;28;20036;-95
2022/06/29 06:01:49;;;;;;;16.92;5.05;;;;;;;22.68;52.87;99492.25;5042578;28;20112;-94
2022/06/29 06:04:48;;;;;;;;;;;;;;;;;;;;;
2022/06/29 06:07:14;;;;;;;11.18;4.55;;;;;;;22.71;52.37;99482.53;5062758;28;20127;-94
2022/06/29 06:13:06;;;;;;;10.27;5.93;;;;;;;22.89;53.01;99475.59;5054963;28;20036;-94
2022/06/29 06:20:44;;;;;;;9.13;5.85;;;;;;;22.95;52.69;99485.19;5830896;22;20061;-93
2022/06/29 06:23:22;;;;;;;9.80;5.90;;;;;;;23.13;52.81;99477.47;5000616;28;20099;-95
2022/06/29 06:26:02;;;;;;;9.52;6.10;;;;;;;23.32;53.87;99481.50;5002015;28;20041;-96
2022/06/29 06:28:46;;;;;;;14.07;5.50;;;;;;;23.28;52.92;99475.91;4996973;28;20030;-93
2022/06/29 06:31:27;;;;;;;11.70;5.40;;;;;;;23.42;52.91;99470.00;4988059;28;20026;-94
2022/06/29 06:33:55;;;;;;;12.35;5.60;;;;;;;23.53;52.45;99473.84;4992342;28;20093;-94
2022/06/29 06:36:28;;;;;;;7.15;5.55;;;;;;;23.66;51.88;99482.00;4987841;28;20037;-94
2022/06/29 07:16:38;;;;;;;12.35;7.13;;;;;;;25.04;48.64;99471.03;4848160;29;20446;-95
2022/06/29 07:19:07;;;;;;;12.05;6.03;;;;;;;25.01;48.95;99453.28;4849840;29;20137;-96
2022/06/29 07:21:32;;;;;;;10.52;5.85;;;;;;;25.11;48.62;99455.44;4904041;29;20040;-94
2022/06/29 07:24:04;;;;;;;10.75;6.32;;;;;;;25.24;49.53;99441.53;4946015;28;20133;-94
2022/06/29 07:26:41;;;;;;;;;;;;;;;25.50;48.01;99471.13;4931534;28;20431;-93
2022/06/29 07:29:44;;;;;;;6.60;4.53;;;;;;;25.49;48.63;99473.09;4963170;28;19910;-95
2022/06/29 07:32:10;;;;;;;12.88;6.47;;;;;;;25.52;48.77;99469.59;4980679;28;20022;-93
2022/06/29 07:34:38;;;;;;;9.85;4.97;;;;;;;25.49;48.38;99444.75;4985048;28;20508;-94
2022/06/29 07:37:03;;;;;;;8.80;5.28;;;;;;;25.79;47.39;99466.91;4978410;28;20127;-95
2022/06/29 07:39:31;;;;;;;10.77;4.40;;;;;;;25.82;46.28;99449.63;4971953;28;20483;-92
2022/06/29 07:42:13;;;;;;;6.60;4.32;;;;;;;25.90;46.14;99459.63;5026143;28;20036;-94
2022/06/29 07:44:52;;;;;;;8.57;4.28;;;;;;;26.07;45.81;99463.06;5008154;28;20412;-93
2022/06/29 07:47:24;;;;;;;11.38;5.60;;;;;;;25.94;46.65;99454.16;5004256;28;20124;-95
2022/06/29 07:57:43;;;;;;;7.18;4.18;;;;;;;26.26;44.29;99449.13;5055672;28;20123;-92
2022/06/29 08:00:28;;;;;;;;;;;;;;;;;;;;;
2022/06/29 08:03:18;;;;;;;7.55;3.83;;;;;;;26.30;44.36;99458.25;5043520;28;20033;-93
2022/06/29 08:06:12;;;;;;;;;;;;;;;;;;;;;
2022/06/29 08:09:11;;;;;;;6.43;4.50;;;;;;;26.50;44.80;99461.72;5028334;28;20092;-95
2022/06/29 08:12:36;;;;;;;8.48;4.32;;;;;;;26.59;41.76;99461.47;5022476;28;20029;-95
2022/06/29 08:15:09;;;;;;;5.53;4.10;;;;;;;26.62;42.83;99460.69;4998960;28;20046;-94
2022/06/29 08:18:41;;;;;;;9.05;4.57;;;;;;;26.77;43.18;99469.94;5008931;28;20112;-92
2022/06/29 08:23:57;;;;;;;8.15;4.00;;;;;;;26.95;43.22;99453.59;5025524;28;20183;-88
2022/06/29 08:27:05;;;;;;;6.45;4.32;;;;;;;26.99;44.22;99443.38;5021596;28;20029;-92
2022/06/29 08:29:42;;;;;;;13.45;5.60;;;;;;;27.12;45.11;99450.25;5014080;28;20037;-95
2022/06/29 08:32:42;;;;;;;9.75;4.70;;;;;;;27.35;45.00;99466.72;4992754;28;20033;-95
2022/06/29 08:35:08;;;;;;;12.25;7.75;;;;;;;27.38;43.65;99471.47;4960783;28;20035;-96
2022/06/29 08:37:42;;;;;;;5.72;4.40;;;;;;;27.29;42.17;99465.47;5003618;28;20068;-94
2022/06/29 08:49:33;;;;;;;6.75;5.10;;;;;;;27.61;42.90;99456.69;5071329;23;19925;-96
2022/06/29 08:52:18;;;;;;;;;;;;;;;;;;;;;
2022/06/29 08:55:29;;;;;;;9.05;4.75;;;;;;;27.83;42.66;99454.91;4994804;28;20129;-94
2022/06/29 08:58:17;;;;;;;8.80;5.10;;;;;;;27.93;42.28;99454.22;4972866;28;20165;-94
2022/06/29 09:00:56;;;;;;;8.88;4.30;;;;;;;28.05;41.47;99457.84;4981525;28;20151;-93
2022/06/29 09:03:29;;;;;;;8.40;4.00;;;;;;;28.15;40.20;99446.06;4988108;28;20033;-95
2022/06/29 09:05:57;;;;;;;10.68;3.92;;;;;;;28.21;38.74;99439.78;4986447;28;20029;-94
2022/06/29 09:08:23;;;;;;;13.00;6.70;;;;;;;28.41;38.59;99445.81;4983602;28;20029;-96
2022/06/29 09:10:54;;;;;;;8.57;4.57;;;;;;;28.45;38.73;99431.19;4982093;28;20056;-94
2022/06/29 09:13:34;;;;;;;7.93;5.07;;;;;;;28.48;38.20;99444.28;4968629;28;20034;-95
2022/06/29 09:15:59;;;;;;;15.15;12.13;;;;;;;28.64;38.63;99444.78;4987746;28;20029;-95
2022/06/29 09:18:34;;;;;;;10.00;4.47;;;;;;;28.78;38.33;99442.06;4970167;28;20064;-95
2022/06/29 09:21:08;;;;;;;7.93;4.40;;;;;;;28.91;37.10;99450.84;4988462;28;20038;-96
2022/06/29 09:23:42;;;;;;;9.52;4.70;;;;;;;28.96;37.12;99436.56;4973592;28;20105;-96
2022/06/29 09:29:47;;;;;;;;;;;;;;;29.31;36.02;99453.75;5027362;28;20040;-96
2022/06/29 09:36:05;;;;;;;;;;;;;;;29.42;35.60;99460.09;4956939;28;20046;-91
2022/06/29 09:38:30;;;;;;;9.80;4.00;;;;;;;29.34;34.80;99439.06;4999899;28;19914;-94
2022/06/29 09:41:03;;;;;;;10.43;4.15;;;;;;;29.48;34.17;99446.63;4966672;28;20464;-94
2022/06/29 09:44:08;;;;;;;5.40;3.80;;;;;;;29.58;33.85;99445.84;4999587;28;20030;-94
2022/06/29 09:46:34;;;;;;;16.83;7.05;;;;;;;29.51;35.41;99440.28;5014446;28;20029;-93
2022/06/29 09:49:07;;;;;;;8.30;4.55;;;;;;;29.64;34.47;99432.38;4963176;28;20165;-96
2022/06/29 09:51:43;;;;;;;10.52;5.25;;;;;;;29.64;35.46;99421.28;4963389;28;20070;-95
2022/06/29 09:54:16;;;;;;;12.60;6.80;;;;;;;29.77;35.24;99426.03;4962897;28;20050;-95
2022/06/29 09:56:58;;;;;;;10.52;4.53;;;;;;;29.78;35.49;99426.81;4963662;28;20092;-95
2022/06/29 10:02:50;;;;;;;6.60;4.68;;;;;;;30.06;34.33;99428.00;4981478;28;19941;-93
2022/06/29 10:08:23;;;;;;;7.05;3.80;;;;;;;30.11;33.65;99424.81;4984606;28;20048;-94
2022/06/29 10:10:52;;;;;;;14.25;4.30;;;;;;;30.09;32.64;99430.78;4964379;28;20026;-95
2022/06/29 10:13:43;;;;;;;6.55;4.28;;;;;;;30.06;32.53;99434.34;4962900;28;20030;-94
2022/06/29 10:17:08;;;;;;;;;;;;;;;;;;;;;
2022/06/29 10:22:51;;;;;;;6.28;3.40;;;;;;;29.98;31.26;99427.22;5082351;28;20044;-95
2022/06/29 10:25:23;;;;;;;9.27;5.32;;;;;;;30.02;32.20;99428.00;5047773;28;20040;-95
2022/06/29 10:28:21;;;;;;;;;;;;;;;;;;;;;
2022/06/29 10:31:29;;;;;;;12.82;4.13;;;;;;;30.04;32.58;99435.94;5026400;28;20459;-96
2022/06/29 10:34:37;;;;;;;5.85;3.45;;;;;;;29.90;31.54;99442.28;5016511;28;20036;-96
2022/06/29 10:47:40;;;;;;;;;;;;;;;;;;;;;
2022/06/29 10:54:09;;;;;;;;;;;;;;;;;;;;;
2022/06/29 10:56:54;;;;;;;9.33;3.43;;;;;;;30.42;29.41;99401.75;5035514;28;20049;-96
2022/06/29 11:25:04;;;;;;;9.27;2.92;;;;;;;30.90;27.86;99416.25;4933237;28;20065;-95
2022/06/29 11:28:03;;;;;;;5.47;2.80;;;;;;;30.82;27.72;99405.13;4949212;28;20031;-94
2022/06/29 11:30:31;;;;;;;9.90;3.78;;;;;;;30.77;27.80;99385.31;4957219;28;20047;-96
2022/06/29 11:33:30;;;;;;;8.50;3.15;;;;;;;30.76;26.73;99401.19;4931279;28;20041;-95
2022/06/29 11:36:22;;;;;;;9.35;3.08;;;;;;;30.56;26.58;99383.44;4964425;28;20038;-96
2022/06/29 11:38:55;;;;;;;8.68;2.42;;;;;;;30.59;25.02;99393.75;4977260;28;20031;-95
2022/06/29 11:41:22;;;;;;;6.38;2.58;;;;;;;30.64;24.98;99401.66;4963676;28;20057;-94
2022/06/29 11:44:30;;;;;;;6.82;2.50;;;;;;;30.90;26.02;99399.56;4967772;28;20041;-96
2022/06/29 11:47:57;;;;;;;;;;;;;;;;;;;;;
2022/06/29 11:51:11;;;;;;;;;;;;;;;;;;;;;
2022/06/29 11:53:57;;;;;;;7.10;2.08;;;;;;;31.26;23.43;99397.34;5240690;23;20116;-96
2022/06/29 11:57:18;;;;;;;;;;;;;;;;;;;;;
2022/06/29 12:10:06;;;;;;;4.57;2.67;;;;;;;31.45;23.63;99379.34;5017384;28;20061;-92
2022/06/29 12:12:32;;;;;;;7.07;2.58;;;;;;;31.42;24.12;99366.22;5038954;28;20033;-95
2022/06/29 12:14:58;;;;;;;5.22;3.38;;;;;;;31.50;24.20;99370.56;4998030;28;20562;-95
2022/06/29 12:17:23;;;;;;;9.52;2.65;;;;;;;31.42;23.63;99353.09;5013144;28;20048;-95
2022/06/29 12:20:05;;;;;;;4.72;2.47;;;;;;;31.51;23.67;99357.44;5022309;28;20071;-96
2022/06/29 12:22:34;;;;;;;;;;;;;;;31.73;23.79;99369.16;5031479;28;20040;-96
2022/06/29 12:25:02;;;;;;;8.48;2.25;;;;;;;31.73;22.40;99342.13;5041961;28;19942;-96
2022/06/29 12:27:28;;;;;;;4.85;2.65;;;;;;;31.71;22.18;99332.56;5014586;28;20475;-93
2022/06/29 12:29:53;;;;;;;7.00;2.35;;;;;;;31.74;22.69;99340.13;5004642;28;20029;-93
2022/06/29 12:32:21;;;;;;;9.32;3.10;;;;;;;31.84;22.77;99336.44;5006037;28;20037;-95
2022/06/29 12:34:50;;;;;;;5.75;2.28;;;;;;;31.80;22.54;99328.09;5006285;28;20117;-95
2022/06/29 12:37:17;;;;;;;9.25;3.40;;;;;;;32.08;23.10;99333.81;5025818;28;20021;-95
2022/06/29 12:40:17;;;;;;;10.75;3.45;;;;;;;32.20;23.19;99322.91;5010569;28;20029;-95
2022/06/29 12:42:53;;;;;;;9.63;2.60;;;;;;;32.49;22.52;99352.41;5031638;28;20040;-95
2022/06/29 12:45:46;;;;;;;5.00;2.80;;;;;;;32.40;21.66;99320.28;5032304;28;20029;-96
2022/06/29 12:48:12;;;;;;;7.13;2.97;;;;;;;32.70;22.61;99343.00;5026032;28;20163;-96
2022/06/29 12:50:37;;;;;;;6.63;2.83;;;;;;;32.76;22.05;99322.59;5008449;28;20483;-94
2022/06/29 12:53:03;;;;;;;5.47;2.80;;;;;;;32.77;22.00;99318.59;5001515;28;20199;-93
2022/06/29 12:55:29;;;;;;;6.75;3.70;;;;;;;32.89;22.16;99316.44;5002326;28;20172;-94
2022/06/29 12:57:59;;;;;;;5.28;2.58;;;;;;;32.88;22.33;99317.66;5003588;28;20026;-93
2022/06/29 13:00:28;;;;;;;6.40;2.83;;;;;;;32.92;23.26;99327.53;5002663;28;20104;-94
2022/06/29 13:02:57;;;;;;;10.35;2.70;;;;;;;32.87;23.03;99310.47;5001832;28;20031;-94
2022/06/29 13:05:31;;;;;;;7.55;2.83;;;;;;;32.81;22.55;99313.75;5001062;28;20514;-91
2022/06/29 13:07:57;;;;;;;3.70;2.30;;;;;;;32.90;22.77;99306.88;5022755;28;20068;-91
2022/06/29 13:10:23;;;;;;;4.10;2.60;;;;;;;33.18;22.40;99316.78;5011031;28;20067;-93
2022/06/29 13:12:48;;;;;;;5.18;2.60;;;;;;;33.30;22.35;99318.19;5010536;28;20032;-91
2022/06/29 13:15:23;;;;;;;5.72;2.70;;;;;;;33.20;23.22;99309.59;5026568;28;20515;-91
2022/06/29 13:17:48;;;;;;;6.75;2.47;;;;;;;33.45;22.51;99322.31;5022434;28;20041;-92
2022/06/29 13:20:14;;;;;;;8.15;3.10;;;;;;;33.48;22.72;99293.56;5017479;28;20029;-91
2022/06/29 13:22:42;;;;;;;6.43;2.60;;;;;;;33.66;22.40;99304.44;5024460;28;20025;-92
2022/06/29 13:25:09;;;;;;;6.00;2.90;;;;;;;33.75;22.67;99289.91;5028980;28;20044;-94
2022/06/29 13:27:34;;;;;;;5.75;2.80;;;;;;;34.14;21.59;99297.53;5016010;28;20025;-91
2022/06/29 13:30:00;;;;;;;6.85;3.35;;;;;;;34.23;22.76;99280.16;5034685;28;20017;-91
2022/06/29 13:32:29;;;;;;;6.90;3.10;;;;;;;34.36;22.33;99283.06;5042605;28;20059;-92
2022/06/29 13:34:57;;;;;;;4.43;2.40;;;;;;;34.78;20.88;99289.75;5033998;28;20086;-93
2022/06/29 13:37:25;;;;;;;11.73;3.38;;;;;;;34.82;20.76;99278.44;5013528;28;20498;-91
2022/06/29 13:39:51;;;;;;;8.23;2.97;;;;;;;35.16;20.55;99294.06;5021625;28;20025;-91
2022/06/29 13:42:22;;;;;;;4.72;2.58;;;;;;;35.65;19.60;99282.78;5032746;28;20040;-91
2022/06/29 13:44:51;;;;;;;8.00;3.00;;;;;;;36.15;19.61;99278.59;5019561;28;20017;-94
2022/06/29 13:47:17;;;;;;;7.78;3.40;;;;;;;35.92;20.54;99270.44;5000818;28;20032;-93
2022/06/29 13:49:42;;;;;;;7.70;2.80;;;;;;;36.13;19.78;99269.84;4998639;28;20056;-93
2022/06/29 13:52:08;;;;;;;4.70;2.50;;;;;;;36.34;19.19;99264.81;4999836;28;20408;-94
2022/06/29 13:54:40;;;;;;;10.85;5.50;;;;;;;36.51;19.64;99262.72;4984803;28;20511;-93
2022/06/29 13:57:39;;;;;;;;;;;;;;;;;;;;;
2022/06/29 14:00:06;;;;;;;8.20;4.03;;;;;;;37.42;19.07;99254.50;5014222;28;20028;-96
2022/06/29 14:02:34;;;;;;;8.07;2.92;;;;;;;37.75;18.73;99273.84;4995308;28;20022;-92
2022/06/29 14:05:01;;;;;;;6.57;2.53;;;;;;;38.04;18.13;99261.56;4963975;28;20408;-92
2022/06/29 14:07:30;;;;;;;4.70;3.20;;;;;;;38.33;17.94;99252.00;5005340;28;20021;-91
2022/06/29 14:09:57;;;;;;;7.03;2.90;;;;;;;38.12;17.93;99254.41;4999291;28;20020;-93
2022/06/29 14:12:23;;;;;;;5.78;2.53;;;;;;;38.34;17.06;99245.91;4982011;28;20025;-92
2022/06/29 14:14:49;;;;;;;10.38;4.25;;;;;;;38.46;17.17;99260.34;4963392;28;20113;-92
2022/06/29 14:17:14;;;;;;;5.03;2.83;;;;;;;38.81;17.35;99242.03;4998083;28;20030;-92
2022/06/29 14:19:42;;;;;;;5.30;3.22;;;;;;;39.10;17.03;99269.03;4995810;28;20022;-93
2022/06/29 14:22:08;;;;;;;4.05;2.35;;;;;;;38.70;17.43;99264.19;4996685;28;20028;-95
2022/06/29 14:24:34;;;;;;;9.68;3.20;;;;;;;38.78;17.26;99261.88;4982150;28;20030;-92